Latest Coastal Weather Observations for Hervey Bay

IDQ60701

Issued at 5:52 am EST Thursday 25 August 2016 (issued every 10 minutes, with the page automatically refreshed every 10 minutes)

About coastal observations | Map of coastal stations | Coastal observations for QLD | Marine services | Other Formats
Station Details ID: 040405 Name: HERVEY BAY AIRPORT Lat: -25.32 Lon: 152.88 Height: 12.98 m
Data from the previous 72 hours. | See also: Recent months at Hervey Bay
Date/Time
EST
Temp
°C
Wind Pressure Rain since
9am
mm
Weather Cloud Vis
km
Sea
Height
m
Swell
Dir  Spd
kts
Gust
kts
hPa Trend Height
m
Period
s
Dir
25/05:30am 17.0 NW 7 11 1010.7 - 4.6 - - 10 - - - -
25/05:00am 16.7 WNW 5 8 1010.1 - 4.6 - - 10 - - - -
25/04:30am 16.8 NW 6 8 1010.2 - 4.6 - - 10 - - - -
25/04:00am 17.0 WNW 7 8 1010.2 - 4.6 - - 10 - - - -
25/03:30am 17.2 WNW 7 9 1009.7 - 4.6 - - 10 - - - -
25/03:00am 17.6 WNW 7 10 1010.2 - 4.6 Recent precip. - 10 - - - -
25/02:30am 18.2 WNW 9 12 1010.4 - 4.4 - - 10 - - - -
25/02:00am 18.6 NNW 11 17 1009.5 - 4.4 - - 10 - - - -
25/01:30am 18.8 NW 9 14 1010.1 - 4.0 - - 10 - - - -
25/01:00am 18.9 NW 10 14 1009.9 - 4.0 - - 10 - - - -
25/12:30am 19.2 NW 9 13 1010.8 - 4.0 - - 10 - - - -
25/12:00am 19.4 W 3 6 1009.2 - 4.0 - - 10 - - - -
 
Date/Time
EST
Temp
°C
Wind Pressure Rain since
9am
mm
Weather Cloud Vis
km
Sea
Height
m
Swell
Dir  Spd
kts
Gust
kts
hPa Trend Height
m
Period
s
Dir
24/11:30pm 19.8 WNW 6 8 1009.9 - 4.0 - - 10 - - - -
24/11:00pm 19.7 NW 8 11 1009.7 - 4.0 - - 10 - - - -
24/10:30pm 19.8 NNW 7 10 1009.0 - 4.0 - - 10 - - - -
24/10:00pm 19.5 N 4 6 1009.2 - 3.6 - - 10 - - - -
24/09:30pm 19.0 WNW 3 4 1009.9 - 3.6 - - 10 - - - -
24/09:00pm 19.2 NW 4 5 1009.4 - 3.6 - - 10 - - - -
24/08:30pm 19.1 CALM 0 0 1009.0 - 3.6 - - 10 - - - -
24/08:00pm 19.4 NNE 5 6 1009.0 - 3.6 - - 10 - - - -
24/07:30pm 19.7 N 4 5 1009.3 - 3.6 - - 10 - - - -
24/07:00pm 19.7 NW 3 4 1009.2 - 3.6 - - 10 - - - -
24/06:30pm 19.9 WSW 1 3 1009.5 - 3.6 - - 10 - - - -
24/06:00pm 20.2 NW 5 6 1009.3 - 3.6 - - 10 - - - -
24/05:30pm 20.4 NW 5 7 1008.9 - 3.6 - - 10 - - - -
24/05:00pm 20.4 W 6 9 1008.8 - 3.6 - - 10 - - - -
24/04:30pm 20.5 W 5 7 1008.2 - 3.6 - - 10 - - - -
24/04:00pm 20.5 W 6 11 1007.6 - 3.6 - - 10 - - - -
24/03:30pm 20.6 WSW 10 17 1007.2 - 3.6 - - 10 - - - -
24/03:15pm 20.9 W 8 15 1007.0 - 3.6 - - 10 - - - -
24/03:00pm 20.9 W 15 25 1007.1 - 3.6 Rain - 2 - - - -
24/02:59pm 20.7 WNW 16 25 1007.0 - 3.6 - - 2 - - - -
24/02:53pm 21.9 NNW 16 26 1006.9 - 1.4 - - 5 - - - -
24/02:47pm 23.1 NNW 16 26 1005.8 - 0.2 - - 10 - - - -
24/02:30pm 23.4 NNW 17 24 1006.1 - 0.2 - - 10 - - - -
24/02:00pm 23.4 NNW 18 27 1006.1 - 0.2 - - 10 - - - -
24/01:57pm 23.5 NNW 17 27 1006.1 - 0.2 - - 10 - - - -
24/01:30pm 23.1 NNW 17 26 1006.3 - 0.2 - - 10 - - - -
24/01:29pm 23.1 NNW 17 26 1006.3 - 0.2 - - 10 - - - -
24/01:17pm 22.7 NNW 17 27 1006.4 - 0.2 - - 4 - - - -
24/01:10pm 22.9 NNW 18 27 1006.4 - 0.2 - - 5 - - - -
24/01:00pm 23.6 NNW 16 26 1006.6 - 0.0 - - 10 - - - -
24/12:52pm 24.4 NNW 15 26 1006.8 - 0.0 - - 10 - - - -
24/12:30pm 23.5 NNW 18 24 1007.1 - 0.0 - - 10 - - - -
24/12:00pm 24.0 NNW 16 22 1007.5 - 0.0 - - 10 - - - -
24/11:33am 24.6 NNW 16 26 1008.2 - 0.0 - - 10 - - - -
24/11:30am 24.1 NNW 17 26 1008.2 - 0.0 - - 10 - - - -
24/11:00am 23.6 NNW 15 22 1008.8 - 0.0 - - 10 - - - -
24/10:30am 22.9 NNW 14 20 1009.6 - 0.0 - - 9 - - - -
24/10:00am 22.2 NNW 11 16 1010.0 - 0.0 - - 8 - - - -
24/09:30am 22.7 NNW 11 17 1010.0 - 0.0 - - 8 - - - -
24/09:00am 21.9 NNW 11 19 1010.0 - 3.2 - - 7 - - - -
24/08:30am 22.0 N 10 14 1010.0 - 3.2 - - 8 - - - -
24/08:00am 22.1 NNW 8 12 1010.0 - 3.2 - - 8 - - - -
24/07:30am 21.7 N 9 13 1009.8 - 3.2 - - 8 - - - -
24/07:00am 21.5 N 10 15 1009.5 - 3.2 - - 8 - - - -
24/06:30am 21.4 N 9 13 1009.2 - 3.2 - - 9 - - - -
24/06:00am 21.4 N 8 12 1008.9 - 3.2 - - 10 - - - -
24/05:30am 21.2 N 9 16 1008.6 - 3.2 - - 10 - - - -
24/05:00am 21.1 N 9 13 1008.3 - 3.2 - - 10 - - - -
24/04:30am 21.1 N 9 13 1008.2 - 3.2 - - 10 - - - -
24/04:00am 21.2 N 9 14 1008.4 - 3.2 - - 10 - - - -
24/03:30am 21.1 N 9 13 1008.7 - 3.2 - - 10 - - - -
24/03:00am 21.0 N 9 13 1009.0 - 3.2 Recent precip. - 10 - - - -
24/02:30am 21.0 NNE 9 13 1009.2 - 3.2 - - 10 - - - -
24/02:00am 21.0 NNE 7 11 1009.8 - 3.0 - - 10 - - - -
24/01:30am 21.1 NNE 8 11 1010.0 - 3.0 - - 10 - - - -
24/01:00am 21.0 NNE 7 10 1010.4 - 3.0 - - 10 - - - -
24/12:39am 21.0 N 10 14 1010.6 - 3.0 - - 10 - - - -
24/12:30am 20.9 NNE 10 14 1010.8 - 3.0 - - 6 - - - -
24/12:20am 21.0 NNE 9 14 1011.0 - 2.8 - - 5 - - - -
24/12:00am 20.8 NNE 7 9 1011.1 - 2.6 - - 10 - - - -
 
Date/Time
EST
Temp
°C
Wind Pressure Rain since
9am
mm
Weather Cloud Vis
km
Sea
Height
m
Swell
Dir  Spd
kts
Gust
kts
hPa Trend Height
m
Period
s
Dir
23/11:30pm 20.8 NE 8 9 1011.5 - 2.6 - - 10 - - - -
23/11:00pm 20.6 NE 5 6 1011.8 - 2.6 - - 10 - - - -
23/10:30pm 20.2 NE 3 5 1012.2 - 2.6 - - 10 - - - -
23/10:00pm 20.1 ENE 4 5 1012.7 - 2.6 - - 10 - - - -
23/09:30pm 19.6 CALM 0 0 1013.1 - 2.6 - - 10 - - - -
23/09:00pm 19.6 ENE 1 3 1013.2 - 2.6 - - 10 - - - -
23/08:30pm 19.9 ENE 2 3 1013.3 - 2.6 - - 10 - - - -
23/08:00pm 19.8 NNE 2 3 1013.3 - 2.6 - - 10 - - - -
23/07:49pm 19.8 N 3 6 1013.3 - 2.6 - - 10 - - - -
23/07:30pm 20.0 NE 3 4 1013.1 - 2.4 - - 3 - - - -
23/07:06pm 20.0 ENE 4 6 1013.1 - 1.4 - - 5 - - - -
23/07:00pm 20.1 E 4 4 1013.1 - 0.8 - - 10 - - - -
23/06:51pm 20.0 NE 1 4 1013.1 - 0.8 - - 10 - - - -
23/06:31pm 19.6 N 2 3 1013.2 - 0.6 - - 5 - - - -
23/06:30pm 20.0 N 2 4 1013.2 - 0.6 - - 6 - - - -
23/06:06pm 20.7 N 7 11 1013.0 - 0.4 - - 10 - - - -
23/06:00pm 20.9 NNW 8 13 1013.0 - 0.4 Rain - 10 - - - -
23/05:51pm 21.1 N 8 13 1013.0 - 0.2 - - 5 - - - -
23/05:30pm 21.4 N 7 10 1012.8 - 0.0 - - 10 - - - -
23/05:00pm 22.0 N 7 9 1012.4 - 0.0 - - 10 - - - -
23/04:30pm 22.5 N 8 11 1012.1 - 0.0 - - 10 - - - -
23/04:00pm 23.1 NNE 10 13 1011.7 - 0.0 - - 10 - - - -
23/03:30pm 24.2 N 9 14 1011.7 - 0.0 - - 10 - - - -
23/03:00pm 24.1 NNE 11 15 1011.9 - 0.0 - - 10 - - - -
23/02:30pm 25.0 N 9 14 1012.2 - 0.0 - - 10 - - - -
23/02:00pm 24.7 N 10 14 1012.3 - 0.0 - - 10 - - - -
23/01:30pm 24.7 N 11 16 1012.3 - 0.0 - - 10 - - - -
23/01:00pm 24.4 N 10 15 1012.3 - 0.0 - - 10 - - - -
23/12:30pm 24.2 N 10 15 1012.9 - 0.0 - - 10 - - - -
23/12:00pm 24.2 N 11 17 1013.8 - 0.0 - - 10 - - - -
23/11:30am 24.5 NNW 11 15 1014.3 - 0.0 - - 10 - - - -
23/11:00am 24.5 NNW 9 14 1014.5 - 0.0 - - 10 - - - -
23/10:30am 23.7 N 10 15 1014.5 - 0.0 - - 10 - - - -
23/10:00am 23.4 N 10 14 1014.7 - 0.0 - - 10 - - - -
23/09:30am 22.8 N 11 15 1014.8 - 0.0 - - 10 - - - -
23/09:00am 22.6 N 8 12 1014.8 - 0.0 - - 10 - - - -
23/08:30am 21.4 NE 6 8 1014.6 - 0.0 - - 10 - - - -
23/08:00am 20.1 ENE 5 6 1014.5 - 0.0 - - 10 - - - -
23/07:30am 16.1 CALM 0 0 1014.9 - 0.0 - - 10 - - - -
23/07:00am 13.8 SSW 3 4 1015.2 - 0.0 - - 10 - - - -
23/06:30am 12.2 CALM 0 0 1015.4 - 0.0 - - 10 - - - -
23/06:00am 12.3 CALM 0 0 1015.2 - 0.0 - - 10 - - - -
23/05:30am 11.7 CALM 0 0 1015.0 - 0.0 - - 10 - - - -
23/05:00am 12.0 CALM 0 0 1014.6 - 0.0 - - 10 - - - -
23/04:30am 11.9 CALM 0 0 1014.3 - 0.0 - - 10 - - - -
23/04:00am 12.3 CALM 0 0 1014.3 - 0.0 - - 10 - - - -
23/03:30am 12.5 CALM 0 0 1014.3 - 0.0 - - 10 - - - -
23/03:00am 12.5 CALM 0 0 1014.3 - 0.0 - - 10 - - - -
23/02:30am 13.2 CALM 0 0 1014.4 - 0.0 - - 10 - - - -
23/02:00am 13.5 CALM 0 0 1014.8 - 0.0 - - 10 - - - -
23/01:30am 14.1 CALM 0 0 1015.0 - 0.0 - - 10 - - - -
23/01:00am 14.4 SW 1 3 1015.2 - 0.0 - - 10 - - - -
23/12:30am 14.0 CALM 0 0 1015.2 - 0.0 - - 10 - - - -
23/12:00am 13.9 CALM 0 0 1015.4 - 0.0 - - 10 - - - -
 
Date/Time
EST
Temp
°C
Wind Pressure Rain since
9am
mm
Weather Cloud Vis
km
Sea
Height
m
Swell
Dir  Spd
kts
Gust
kts
hPa Trend Height
m
Period
s
Dir
22/11:30pm 13.8 CALM 0 0 1015.6 - 0.0 - - 10 - - - -
22/11:00pm 14.1 CALM 0 0 1015.7 - 0.0 - - 10 - - - -
22/10:30pm 14.0 NE 1 3 1015.6 - 0.0 - - 10 - - - -
22/10:00pm 14.5 NE 4 5 1015.6 - 0.0 - - 10 - - - -
22/09:30pm 15.3 NE 3 4 1015.6 - 0.0 - - 10 - - - -
22/09:00pm 15.9 NE 3 4 1015.6 - 0.0 - - 10 - - - -
22/08:30pm 17.5 ENE 5 5 1015.5 - 0.0 - - 10 - - - -
22/08:00pm 17.7 NE 4 5 1015.4 - 0.0 - - 10 - - - -
22/07:30pm 19.2 NNE 4 5 1015.4 - 0.0 - - 10 - - - -
22/07:00pm 19.5 NNE 5 6 1015.0 - 0.0 - - 10 - - - -
22/06:30pm 19.9 NNE 5 6 1014.9 - 0.0 - - 10 - - - -
22/06:00pm 20.3 N 4 6 1014.9 - 0.0 - - 10 - - - -
22/05:30pm 20.8 N 6 8 1014.7 - 0.0 - - 10 - - - -
22/05:00pm 21.4 N 6 10 1014.5 - 0.0 - - 10 - - - -
22/04:30pm 21.9 NNE 9 13 1014.3 - 0.0 - - 10 - - - -
22/04:00pm 23.0 N 9 14 1014.3 - 0.0 - - 10 - - - -
22/03:30pm 22.9 N 10 16 1014.3 - 0.0 - - 10 - - - -
22/03:00pm 23.6 N 10 16 1014.3 - 0.0 - - 10 - - - -
22/02:30pm 23.5 N 10 14 1014.8 - 0.0 - - 10 - - - -
22/02:00pm 24.0 N 10 13 1014.8 - 0.0 - - 10 - - - -
22/01:30pm 24.1 N 11 16 1014.9 - 0.0 - - 10 - - - -
22/01:00pm 24.0 N 11 17 1015.3 - 0.0 - - 10 - - - -
22/12:30pm 24.3 N 10 16 1015.4 - 0.0 - - 10 - - - -
22/12:00pm 23.9 N 9 15 1015.7 - 0.0 - - 10 - - - -
22/11:30am 24.6 NNE 8 15 1016.3 - 0.0 - - 10 - - - -
22/11:00am 23.0 NE 7 12 1016.6 - 0.0 - - 10 - - - -
22/10:30am 23.4 ESE 7 11 1016.7 - 0.0 - - 10 - - - -
22/10:00am 22.9 E 8 11 1017.0 - 0.0 - - 10 - - - -
22/09:30am 22.1 ESE 7 9 1017.2 - 0.0 - - 10 - - - -
22/09:00am 20.1 SW 4 5 1017.6 - 0.0 - - 10 - - - -
22/08:30am 17.6 SSW 4 6 1017.5 - 0.0 - - 10 - - - -
22/08:00am 15.8 SSW 4 6 1017.4 - 0.0 - - 10 - - - -
22/07:30am 14.5 SSW 5 7 1017.2 - 0.0 - - 10 - - - -
22/07:00am 13.3 CALM 0 0 1017.1 - 0.0 - - 10 - - - -
22/06:40am 12.0 CALM 0 0 1017.0 - 0.0 - - 10 - - - -
22/06:30am 11.6 CALM 0 0 1017.0 - 0.0 - - 4 - - - -
22/06:02am 11.7 CALM 0 0 1016.7 - 0.0 - - 3 - - - -
22/06:00am 11.8 CALM 0 0 1016.7 - 0.0 - - 10 - - - -

Other Formats:

Comma delimited format used in spreadsheet applications
http://www.bom.gov.au/fwo/IDQ60701/IDQ60701.95565.axf

JavaScript Object Notation format (JSON) in row-major order
http://www.bom.gov.au/fwo/IDQ60701/IDQ60701.95565.json